Time;durP1;ratioP1;P1;durP2;ratioP2;P2;SDS_P1;SDS_P2;PMS_P1;PMS_P2;Temp;Humidity;BMP_temperature;BMP_pressure;BME280_temperature;BME280_humidity;BME280_pressure;Samples;Min_cycle;Max_cycle;Signal;HPM_P1;HPM_P2
2023/06/18 00:00:22;;;;;;;9.45;7.22;;;19.60;51.00;;;;;;4986011;28;114254;-82
2023/06/18 00:02:49;;;;;;;13.50;8.38;;;19.60;51.30;;;;;;5001265;28;117753;-81
2023/06/18 00:05:16;;;;;;;12.93;9.63;;;19.70;51.30;;;;;;4997972;28;114857;-80
2023/06/18 00:07:44;;;;;;;10.32;7.85;;;19.70;50.90;;;;;;4983905;28;114869;-80
2023/06/18 00:10:11;;;;;;;11.55;8.55;;;19.70;51.00;;;;;;4985164;28;114431;-80
2023/06/18 00:12:38;;;;;;;11.68;8.43;;;19.70;51.00;;;;;;4985856;28;114493;-80
2023/06/18 00:15:06;;;;;;;10.73;7.68;;;19.70;51.10;;;;;;4984677;28;115628;-81
2023/06/18 00:17:33;;;;;;;12.98;8.27;;;19.70;51.00;;;;;;4984769;28;114839;-80
2023/06/18 00:20:01;;;;;;;10.05;8.15;;;19.70;51.00;;;;;;4984854;28;118027;-80
2023/06/18 00:22:31;;;;;;;11.70;8.57;;;19.70;51.20;;;;;;4984247;28;114362;-81
2023/06/18 00:24:59;;;;;;;10.60;7.97;;;19.60;50.90;;;;;;4984279;28;114944;-81
2023/06/18 00:27:26;;;;;;;11.32;8.40;;;19.60;51.30;;;;;;4984515;28;115659;-80
2023/06/18 00:29:53;;;;;;;11.68;8.75;;;19.50;51.20;;;;;;4985359;28;114222;-81
2023/06/18 00:32:20;;;;;;;10.07;8.02;;;19.50;51.30;;;;;;4983256;28;114469;-81
2023/06/18 00:34:53;;;;;;;10.98;9.32;;;19.50;51.40;;;;;;4999995;28;115170;-80
2023/06/18 00:37:21;;;;;;;12.15;8.93;;;19.50;50.90;;;;;;4999017;28;114594;-81
2023/06/18 00:39:49;;;;;;;14.18;9.50;;;19.60;50.70;;;;;;4983699;28;114262;-81
2023/06/18 00:42:16;;;;;;;10.18;8.05;;;19.50;50.90;;;;;;4983825;28;116350;-81
2023/06/18 00:44:44;;;;;;;9.93;8.05;;;19.50;51.20;;;;;;4982140;28;114866;-81
2023/06/18 00:47:19;;;;;;;11.60;8.93;;;19.50;51.20;;;;;;4983666;28;116093;-80
2023/06/18 00:49:47;;;;;;;13.63;10.00;;;19.50;51.00;;;;;;4966977;28;114571;-80
2023/06/18 00:52:14;;;;;;;13.35;8.55;;;19.40;50.90;;;;;;4984763;28;114877;-80
2023/06/18 00:54:44;;;;;;;10.30;8.23;;;19.30;51.20;;;;;;4996963;28;115880;-80
2023/06/18 00:57:13;;;;;;;11.85;9.52;;;19.30;51.30;;;;;;4962878;28;114624;-80
2023/06/18 00:59:44;;;;;;;11.30;8.18;;;19.20;51.40;;;;;;4947528;28;114232;-81
2023/06/18 01:02:12;;;;;;;10.82;8.05;;;19.20;51.60;;;;;;4964294;28;114082;-81
2023/06/18 01:04:40;;;;;;;11.32;7.88;;;19.20;51.90;;;;;;4962562;28;114670;-80
2023/06/18 01:07:13;;;;;;;10.20;9.02;;;19.20;51.90;;;;;;4961767;28;114725;-80
2023/06/18 01:09:45;;;;;;;11.02;8.30;;;19.20;51.40;;;;;;4978450;28;114683;-81
2023/06/18 01:12:13;;;;;;;10.38;7.90;;;19.20;51.50;;;;;;4963720;28;114530;-82
2023/06/18 01:14:50;;;;;;;10.75;8.00;;;19.20;51.90;;;;;;4998170;28;115423;-82
2023/06/18 01:17:20;;;;;;;9.88;7.88;;;19.20;51.60;;;;;;4983771;28;114841;-81
2023/06/18 01:20:00;;;;;;;10.85;8.15;;;19.30;51.80;;;;;;4999426;28;114466;-81
2023/06/18 01:22:48;;;;;;;12.18;9.25;;;19.30;51.60;;;;;;4999037;28;114206;-81
2023/06/18 01:25:15;;;;;;;11.82;8.18;;;19.30;51.30;;;;;;4983495;28;114917;-81
2023/06/18 01:27:46;;;;;;;10.43;8.38;;;19.10;51.80;;;;;;4999718;28;116515;-80
2023/06/18 01:30:14;;;;;;;11.35;8.38;;;19.10;51.70;;;;;;4966803;28;114330;-80
2023/06/18 01:32:41;;;;;;;11.98;8.07;;;19.10;52.10;;;;;;4982950;28;114431;-80
2023/06/18 01:35:14;;;;;;;9.40;7.75;;;19.10;51.60;;;;;;4981740;28;115475;-80
2023/06/18 01:38:01;;;;;;;12.40;7.55;;;19.10;51.70;;;;;;4983379;28;114625;-80
2023/06/18 01:40:35;;;;;;;11.65;7.47;;;19.10;51.70;;;;;;4983139;28;114248;-80
2023/06/18 01:43:22;;;;;;;9.90;8.05;;;19.10;51.30;;;;;;4997234;28;114433;-81
2023/06/18 01:45:53;;;;;;;12.07;8.45;;;19.20;51.30;;;;;;4972100;28;117921;-80
2023/06/18 01:48:21;;;;;;;9.13;7.18;;;19.00;51.50;;;;;;4962304;28;115808;-81
2023/06/18 01:50:49;;;;;;;10.07;7.72;;;19.00;51.70;;;;;;4979176;28;114526;-80
2023/06/18 01:53:17;;;;;;;9.70;7.95;;;19.00;51.90;;;;;;4979882;28;114370;-81
2023/06/18 01:55:47;;;;;;;11.23;7.80;;;19.00;51.90;;;;;;4978025;28;114934;-81
2023/06/18 01:58:15;;;;;;;9.23;7.68;;;19.00;52.00;;;;;;4981869;28;114514;-81
2023/06/18 02:00:42;;;;;;;10.52;7.22;;;19.00;51.90;;;;;;4982517;28;114359;-81
2023/06/18 02:03:10;;;;;;;10.32;8.13;;;19.00;52.10;;;;;;4984288;28;114440;-81
2023/06/18 02:05:38;;;;;;;10.88;9.00;;;19.00;51.80;;;;;;4973807;28;118403;-81
2023/06/18 02:08:05;;;;;;;9.50;7.68;;;19.00;51.40;;;;;;4962115;28;114728;-81
2023/06/18 02:10:33;;;;;;;11.13;7.65;;;19.00;51.90;;;;;;4976460;28;114413;-81
2023/06/18 02:13:00;;;;;;;10.88;8.50;;;18.90;52.00;;;;;;4982779;28;117003;-80
2023/06/18 02:15:28;;;;;;;11.30;8.88;;;19.00;51.80;;;;;;4981724;28;114928;-81
2023/06/18 02:17:56;;;;;;;10.70;8.75;;;19.00;51.30;;;;;;4967049;28;117292;-80
2023/06/18 02:20:24;;;;;;;12.30;8.38;;;19.00;51.50;;;;;;4968917;28;114525;-80
2023/06/18 02:22:52;;;;;;;8.77;7.28;;;19.00;51.60;;;;;;4986084;28;114535;-80
2023/06/18 02:25:28;;;;;;;11.25;7.50;;;19.00;51.80;;;;;;4984834;28;115174;-80
2023/06/18 02:27:59;;;;;;;11.80;8.35;;;18.90;51.90;;;;;;4986528;28;115144;-80
2023/06/18 02:30:29;;;;;;;10.93;7.82;;;18.90;51.30;;;;;;4980297;28;114490;-81
2023/06/18 02:33:00;;;;;;;9.40;7.50;;;19.00;51.80;;;;;;4967969;28;114172;-80
2023/06/18 02:35:29;;;;;;;10.18;7.65;;;18.90;51.90;;;;;;4981311;28;114904;-80
2023/06/18 02:37:56;;;;;;;10.40;7.78;;;18.90;52.10;;;;;;4981039;28;114836;-80
2023/06/18 02:40:23;;;;;;;10.55;7.90;;;18.90;51.90;;;;;;4967735;28;114183;-80
2023/06/18 02:42:52;;;;;;;9.73;7.82;;;18.90;51.80;;;;;;4972714;28;114409;-81
2023/06/18 02:45:24;;;;;;;10.52;7.25;;;19.00;51.80;;;;;;4974344;28;115847;-81
2023/06/18 02:47:51;;;;;;;9.98;7.50;;;19.00;51.80;;;;;;4981521;28;114699;-81
2023/06/18 02:50:19;;;;;;;9.25;7.13;;;19.00;51.80;;;;;;4978190;28;114190;-81
2023/06/18 02:52:47;;;;;;;9.75;7.88;;;19.00;51.60;;;;;;4965449;28;114247;-81
2023/06/18 02:55:15;;;;;;;11.45;7.95;;;19.00;51.50;;;;;;4964887;28;114959;-80
2023/06/18 02:57:43;;;;;;;9.32;7.60;;;19.00;51.40;;;;;;4965093;28;116933;-81
2023/06/18 03:00:11;;;;;;;9.25;7.50;;;19.00;51.70;;;;;;4949597;28;114453;-81
2023/06/18 03:02:41;;;;;;;8.68;6.93;;;19.00;51.60;;;;;;4966001;28;114260;-81
2023/06/18 03:05:14;;;;;;;9.23;7.32;;;19.10;51.60;;;;;;4961818;28;118344;-81
2023/06/18 03:07:41;;;;;;;9.40;7.45;;;19.10;51.50;;;;;;4965247;28;115115;-81
2023/06/18 03:10:10;;;;;;;9.18;7.80;;;19.10;51.60;;;;;;4965359;28;114474;-81
2023/06/18 03:12:38;;;;;;;8.95;6.38;;;19.10;51.20;;;;;;4965771;28;114234;-81
2023/06/18 03:15:34;;;;;;;10.25;7.60;;;19.10;51.40;;;;;;4967725;28;116664;-81
2023/06/18 03:18:02;;;;;;;10.90;8.82;;;19.10;51.20;;;;;;4964814;28;114674;-81
2023/06/18 03:20:30;;;;;;;10.10;7.95;;;19.10;51.10;;;;;;4965641;28;114506;-81
2023/06/18 03:22:58;;;;;;;11.05;7.75;;;19.00;51.00;;;;;;4966586;28;114394;-81
2023/06/18 03:25:26;;;;;;;9.48;7.95;;;19.00;51.30;;;;;;4981051;28;114913;-81
2023/06/18 03:27:53;;;;;;;11.35;8.30;;;19.00;51.20;;;;;;4983272;28;114456;-82
2023/06/18 03:30:24;;;;;;;11.60;7.43;;;19.00;50.90;;;;;;4984650;28;114498;-81
2023/06/18 03:32:52;;;;;;;9.07;7.38;;;19.10;51.20;;;;;;4985581;28;114395;-81
2023/06/18 03:35:21;;;;;;;9.32;8.27;;;19.30;51.00;;;;;;5000374;28;117225;-81
2023/06/18 03:37:48;;;;;;;10.07;7.57;;;19.70;50.00;;;;;;4983764;28;114592;-81
2023/06/18 03:40:17;;;;;;;9.98;8.35;;;20.00;49.90;;;;;;4985840;28;114339;-81
2023/06/18 03:42:46;;;;;;;14.48;6.97;;;20.40;48.70;;;;;;4975018;28;114431;-81
2023/06/18 03:45:17;;;;;;;10.45;7.85;;;20.70;48.30;;;;;;4988085;28;116677;-81
2023/06/18 03:47:44;;;;;;;11.60;8.13;;;20.90;47.60;;;;;;4984276;28;114707;-81
2023/06/18 03:50:11;;;;;;;9.43;7.75;;;21.10;46.80;;;;;;4985889;28;114170;-81
2023/06/18 03:52:39;;;;;;;8.68;6.68;;;21.30;46.40;;;;;;4985289;28;114240;-81
2023/06/18 03:55:08;;;;;;;10.63;8.15;;;21.50;46.20;;;;;;4983844;28;114834;-81
2023/06/18 03:57:35;;;;;;;7.93;6.97;;;21.70;45.60;;;;;;4983695;28;116851;-81
2023/06/18 04:00:07;;;;;;;7.40;6.30;;;21.90;45.30;;;;;;4985177;28;114236;-80
2023/06/18 04:02:38;;;;;;;10.90;8.23;;;22.00;45.10;;;;;;4986132;28;114546;-80
2023/06/18 04:05:12;;;;;;;12.07;8.75;;;22.20;44.50;;;;;;4982890;28;116216;-80
2023/06/18 04:07:39;;;;;;;8.98;6.95;;;22.20;44.30;;;;;;4985055;28;115724;-80
2023/06/18 04:10:06;;;;;;;8.73;7.80;;;22.20;44.50;;;;;;4968253;28;117077;-81
2023/06/18 04:12:33;;;;;;;10.52;8.10;;;22.20;44.10;;;;;;4984386;28;114435;-81
2023/06/18 04:15:02;;;;;;;12.55;8.48;;;22.10;44.20;;;;;;4969973;28;115456;-82
2023/06/18 04:17:41;;;;;;;11.75;9.48;;;22.00;44.30;;;;;;4968847;28;115373;-82
2023/06/18 04:20:11;;;;;;;11.02;8.70;;;22.10;44.30;;;;;;4972654;28;114242;-82
2023/06/18 04:22:39;;;;;;;11.20;9.65;;;21.90;44.40;;;;;;4977569;28;114240;-82
2023/06/18 04:25:08;;;;;;;11.30;8.32;;;21.80;44.60;;;;;;4968909;28;114954;-81
2023/06/18 04:27:38;;;;;;;10.50;7.90;;;21.80;44.70;;;;;;4977584;28;116017;-81
2023/06/18 04:30:07;;;;;;;12.35;8.82;;;21.80;44.70;;;;;;4963681;28;115364;-81
2023/06/18 04:32:34;;;;;;;14.20;8.48;;;21.80;44.50;;;;;;4980219;28;114455;-81
2023/06/18 04:35:03;;;;;;;10.85;8.00;;;21.80;44.70;;;;;;4963613;28;115045;-81
2023/06/18 04:37:32;;;;;;;9.20;7.53;;;21.70;44.90;;;;;;4977419;28;115360;-81
2023/06/18 04:39:59;;;;;;;12.93;8.00;;;21.80;45.00;;;;;;4965384;28;114543;-81
2023/06/18 04:42:30;;;;;;;10.23;7.97;;;21.70;44.80;;;;;;4964399;28;114505;-81
2023/06/18 04:44:57;;;;;;;10.52;7.55;;;21.70;45.00;;;;;;4963205;28;116890;-81
2023/06/18 04:47:24;;;;;;;10.40;8.40;;;21.70;45.00;;;;;;4947471;28;117138;-81
2023/06/18 04:49:52;;;;;;;10.30;7.68;;;21.70;45.00;;;;;;4965723;28;115330;-81
2023/06/18 04:52:19;;;;;;;9.77;7.88;;;21.70;45.10;;;;;;4969508;28;114606;-81
2023/06/18 04:54:47;;;;;;;12.07;9.10;;;21.80;45.10;;;;;;4962526;28;115896;-81
2023/06/18 04:57:14;;;;;;;11.85;8.48;;;21.80;45.00;;;;;;4965429;28;115198;-82
2023/06/18 04:59:42;;;;;;;12.40;8.75;;;21.90;44.90;;;;;;4964092;28;114238;-82
2023/06/18 05:02:10;;;;;;;14.13;9.70;;;22.00;44.70;;;;;;4964022;28;115836;-82
2023/06/18 05:04:37;;;;;;;13.40;9.15;;;22.00;44.70;;;;;;4962946;28;116240;-81
2023/06/18 05:07:04;;;;;;;13.45;9.20;;;22.10;44.60;;;;;;4963453;28;116870;-80
2023/06/18 05:09:35;;;;;;;13.68;10.50;;;22.10;44.80;;;;;;4947759;28;114420;-81
2023/06/18 05:12:02;;;;;;;15.88;10.52;;;22.20;44.80;;;;;;4964071;28;114253;-81
2023/06/18 05:14:30;;;;;;;17.63;10.48;;;22.20;44.80;;;;;;4963974;28;117586;-81
2023/06/18 05:16:58;;;;;;;16.33;11.43;;;22.30;44.50;;;;;;4972779;28;115165;-81
2023/06/18 05:19:26;;;;;;;18.40;11.15;;;22.30;44.50;;;;;;4983265;28;116276;-80
2023/06/18 05:21:54;;;;;;;18.52;11.20;;;22.30;44.40;;;;;;4967210;28;114726;-80
2023/06/18 05:24:24;;;;;;;16.73;11.18;;;22.40;44.40;;;;;;4982344;28;116204;-80
2023/06/18 05:26:52;;;;;;;16.55;10.48;;;22.50;44.40;;;;;;4976982;28;116270;-80
2023/06/18 05:29:20;;;;;;;20.67;10.82;;;22.60;44.20;;;;;;4963820;28;114838;-81
2023/06/18 05:31:50;;;;;;;13.07;9.73;;;22.70;44.20;;;;;;4963125;28;114388;-82
2023/06/18 05:34:26;;;;;;;14.77;9.85;;;22.80;43.80;;;;;;4967145;28;115181;-82
2023/06/18 05:36:53;;;;;;;15.18;9.52;;;22.90;43.70;;;;;;4964457;28;114714;-81
2023/06/18 05:39:21;;;;;;;12.23;8.23;;;23.00;43.70;;;;;;4986753;28;114176;-85
2023/06/18 05:41:50;;;;;;;10.05;7.85;;;23.10;43.40;;;;;;4971446;28;114308;-81
2023/06/18 05:44:19;;;;;;;10.82;8.40;;;23.30;43.50;;;;;;4962610;28;114826;-82
2023/06/18 05:46:47;;;;;;;8.43;6.43;;;23.30;43.30;;;;;;4946922;28;115820;-81
2023/06/18 05:49:15;;;;;;;7.88;7.07;;;23.40;42.90;;;;;;4954580;28;114614;-82
2023/06/18 05:51:45;;;;;;;7.82;6.28;;;23.50;42.80;;;;;;4966283;28;114329;-82
2023/06/18 05:54:13;;;;;;;6.60;5.90;;;23.60;42.80;;;;;;4980489;28;115024;-81
2023/06/18 05:56:40;;;;;;;8.35;5.85;;;23.70;43.00;;;;;;4965123;28;114625;-82
2023/06/18 05:59:08;;;;;;;8.05;5.82;;;23.70;43.00;;;;;;4982830;28;115264;-82
2023/06/18 06:01:43;;;;;;;6.95;5.40;;;23.80;42.80;;;;;;4967175;28;114507;-82
2023/06/18 06:04:13;;;;;;;11.15;5.95;;;23.90;42.50;;;;;;4950694;28;118776;-83
2023/06/18 06:06:48;;;;;;;6.20;5.60;;;23.90;42.20;;;;;;4966047;28;114646;-82
2023/06/18 06:09:18;;;;;;;6.57;5.88;;;24.10;42.20;;;;;;4985943;28;114566;-80
2023/06/18 06:11:46;;;;;;;7.15;6.03;;;24.20;41.40;;;;;;4985657;28;114391;-80
2023/06/18 06:14:13;;;;;;;7.30;6.05;;;24.20;41.40;;;;;;4985273;28;114920;-81
2023/06/18 06:16:41;;;;;;;7.03;5.43;;;24.30;41.20;;;;;;4983377;28;114632;-81
2023/06/18 06:19:09;;;;;;;7.22;5.68;;;24.30;41.40;;;;;;4967708;28;114217;-80
2023/06/18 06:21:36;;;;;;;6.90;6.20;;;24.40;41.50;;;;;;4980885;28;114465;-81
2023/06/18 06:24:04;;;;;;;8.93;7.05;;;24.50;41.40;;;;;;4982534;28;115376;-81
2023/06/18 06:26:55;;;;;;;6.03;5.07;;;24.50;41.50;;;;;;4969356;28;116321;-82
2023/06/18 06:29:26;;;;;;;8.57;7.18;;;24.50;41.40;;;;;;4985908;28;114684;-82
2023/06/18 06:31:57;;;;;;;6.75;5.95;;;24.60;41.00;;;;;;4979816;28;114404;-82
2023/06/18 06:34:30;;;;;;;6.78;6.07;;;24.50;41.40;;;;;;4964574;28;115061;-82
2023/06/18 06:36:57;;;;;;;7.68;6.30;;;24.50;41.50;;;;;;4964635;28;116868;-83
2023/06/18 06:39:25;;;;;;;6.55;5.95;;;24.40;41.50;;;;;;4949449;28;114638;-81
2023/06/18 06:41:53;;;;;;;6.65;5.95;;;24.40;41.30;;;;;;4967902;28;114445;-82
2023/06/18 06:44:20;;;;;;;8.20;6.20;;;24.40;41.40;;;;;;4981350;28;117165;-81
2023/06/18 06:46:57;;;;;;;7.90;6.47;;;24.40;41.60;;;;;;4981283;28;114843;-82
2023/06/18 06:49:45;;;;;;;7.10;6.40;;;24.40;41.40;;;;;;4965540;28;114328;-82
2023/06/18 06:52:49;;;;;;;7.07;5.55;;;24.30;41.50;;;;;;4924772;28;114382;-81
2023/06/18 06:55:17;;;;;;;6.75;6.03;;;24.30;42.20;;;;;;4944837;28;117704;-82
2023/06/18 06:57:45;;;;;;;6.97;6.28;;;24.40;41.60;;;;;;4983439;28;116937;-81
2023/06/18 07:00:13;;;;;;;6.97;5.70;;;24.40;41.20;;;;;;4968181;28;114503;-83
2023/06/18 07:02:40;;;;;;;6.40;5.50;;;24.30;41.40;;;;;;4965007;28;114391;-81
2023/06/18 07:05:09;;;;;;;7.00;5.63;;;24.40;41.80;;;;;;4965924;28;115456;-81
2023/06/18 07:07:49;;;;;;;7.57;5.88;;;24.50;41.60;;;;;;4964182;28;117468;-81
2023/06/18 07:10:16;;;;;;;6.22;5.18;;;24.60;40.90;;;;;;4948396;28;114765;-81
2023/06/18 07:12:43;;;;;;;6.13;5.45;;;24.60;41.10;;;;;;4949466;28;114246;-81
2023/06/18 07:15:10;;;;;;;6.28;4.88;;;24.60;40.90;;;;;;4966522;28;116051;-81
2023/06/18 07:17:38;;;;;;;5.45;4.95;;;24.60;41.30;;;;;;4947898;28;118249;-82
2023/06/18 07:20:06;;;;;;;6.05;5.10;;;24.70;41.10;;;;;;4947670;28;114417;-81
2023/06/18 07:22:35;;;;;;;5.38;4.80;;;24.70;40.70;;;;;;4965740;28;114503;-81
2023/06/18 07:25:03;;;;;;;5.78;5.18;;;24.70;40.60;;;;;;4980286;28;115014;-82
2023/06/18 07:27:30;;;;;;;6.95;5.68;;;24.60;40.50;;;;;;4983602;28;115225;-81
2023/06/18 07:29:57;;;;;;;5.95;4.88;;;24.30;40.60;;;;;;4974383;28;114138;-81
2023/06/18 07:32:24;;;;;;;7.25;5.55;;;24.20;41.30;;;;;;4982587;28;114335;-80
2023/06/18 07:34:52;;;;;;;6.35;4.72;;;24.10;41.70;;;;;;4980673;28;115135;-80
2023/06/18 07:37:20;;;;;;;5.82;4.80;;;24.20;41.70;;;;;;4984803;28;114603;-82
2023/06/18 07:39:47;;;;;;;7.15;4.75;;;24.20;41.70;;;;;;4981184;28;114435;-80
2023/06/18 07:42:15;;;;;;;7.18;5.28;;;24.30;41.60;;;;;;4981023;28;116468;-82
2023/06/18 07:44:42;;;;;;;6.13;5.53;;;24.50;41.40;;;;;;4980163;28;115208;-82
2023/06/18 07:47:09;;;;;;;6.40;5.25;;;24.50;41.00;;;;;;4980388;28;114879;-82
2023/06/18 07:49:36;;;;;;;12.60;5.25;;;24.50;41.10;;;;;;4954093;28;114392;-82
2023/06/18 07:52:04;;;;;;;9.73;5.00;;;24.60;40.50;;;;;;4950532;28;114427;-81
2023/06/18 07:54:34;;;;;;;6.47;4.75;;;24.60;40.30;;;;;;4966495;28;116394;-81
2023/06/18 07:57:02;;;;;;;5.75;5.15;;;24.60;39.90;;;;;;4963362;28;115161;-81
2023/06/18 07:59:30;;;;;;;5.30;4.80;;;24.60;40.30;;;;;;4980912;28;116186;-81
2023/06/18 08:01:57;;;;;;;5.53;4.82;;;24.60;40.40;;;;;;4964149;28;114454;-80
2023/06/18 08:04:24;;;;;;;7.10;5.13;;;24.70;40.40;;;;;;4979968;28;115038;-81
2023/06/18 08:06:52;;;;;;;5.53;4.95;;;24.70;40.60;;;;;;4992373;28;114519;-81
2023/06/18 08:09:19;;;;;;;7.78;4.63;;;24.80;40.70;;;;;;4985557;28;114532;-81
2023/06/18 08:11:48;;;;;;;6.63;4.90;;;24.80;40.30;;;;;;4978332;28;117714;-81
2023/06/18 08:14:15;;;;;;;5.70;4.97;;;24.90;39.90;;;;;;4999466;28;114916;-80
2023/06/18 08:16:42;;;;;;;6.00;4.85;;;25.10;40.00;;;;;;4999814;28;114898;-80
2023/06/18 08:19:12;;;;;;;8.15;5.35;;;25.20;39.80;;;;;;4977437;28;115562;-80
2023/06/18 08:21:40;;;;;;;5.88;4.80;;;25.20;39.70;;;;;;4965094;28;114571;-80
2023/06/18 08:24:08;;;;;;;6.05;4.82;;;25.00;39.10;;;;;;4964602;28;115087;-80
2023/06/18 08:26:36;;;;;;;5.70;4.60;;;24.80;39.50;;;;;;4964662;28;114700;-80
2023/06/18 08:29:04;;;;;;;5.75;4.88;;;24.60;39.20;;;;;;4963938;28;114614;-80
2023/06/18 08:31:32;;;;;;;5.55;4.60;;;24.40;40.00;;;;;;4981444;28;114252;-80
2023/06/18 08:34:00;;;;;;;8.30;5.60;;;24.40;40.20;;;;;;4963455;28;114818;-81
2023/06/18 08:36:27;;;;;;;5.68;4.82;;;24.40;39.40;;;;;;4963142;28;115200;-80
2023/06/18 08:38:55;;;;;;;7.35;5.72;;;24.40;39.00;;;;;;4979043;28;114452;-80
2023/06/18 08:41:26;;;;;;;6.18;5.40;;;24.30;39.20;;;;;;4961786;28;114656;-80
2023/06/18 08:43:53;;;;;;;5.28;4.78;;;24.30;39.60;;;;;;4949574;28;115579;-80
2023/06/18 08:46:24;;;;;;;6.43;4.70;;;24.30;39.80;;;;;;4967592;28;114651;-81
2023/06/18 08:48:59;;;;;;;7.20;5.13;;;24.50;39.60;;;;;;4979311;28;114307;-81
2023/06/18 08:51:27;;;;;;;5.35;4.85;;;24.60;39.40;;;;;;4977311;28;114232;-81
2023/06/18 08:53:55;;;;;;;4.40;3.90;;;24.80;39.30;;;;;;4982015;28;115004;-81
2023/06/18 08:56:24;;;;;;;6.68;5.00;;;24.90;38.50;;;;;;4960265;28;116745;-81
2023/06/18 08:58:56;;;;;;;6.40;5.30;;;24.90;38.50;;;;;;4962860;28;114480;-80
2023/06/18 09:01:25;;;;;;;7.57;5.35;;;24.90;38.40;;;;;;4977553;28;114784;-81
2023/06/18 09:03:59;;;;;;;6.57;5.20;;;24.70;38.50;;;;;;4991494;28;115116;-81
2023/06/18 09:06:26;;;;;;;9.02;4.90;;;24.40;38.90;;;;;;4990368;28;115927;-81
2023/06/18 09:09:04;;;;;;;6.88;5.55;;;24.30;39.60;;;;;;4969248;28;114262;-84
2023/06/18 09:11:37;;;;;;;6.95;5.80;;;24.30;39.20;;;;;;4962800;28;115480;-79
2023/06/18 09:14:04;;;;;;;7.30;5.43;;;24.20;38.80;;;;;;4967131;28;115764;-80
2023/06/18 09:16:32;;;;;;;8.07;5.70;;;24.00;39.20;;;;;;4962312;28;115216;-80
2023/06/18 09:19:00;;;;;;;8.30;6.45;;;23.90;39.80;;;;;;4964135;28;114171;-81
2023/06/18 09:21:42;;;;;;;8.52;6.38;;;23.80;40.30;;;;;;4969489;28;114378;-81
2023/06/18 09:24:23;;;;;;;10.55;6.78;;;23.80;40.30;;;;;;4961762;28;115847;-81
2023/06/18 09:27:00;;;;;;;8.85;7.07;;;23.80;40.50;;;;;;4976614;28;114623;-81
2023/06/18 09:29:34;;;;;;;7.55;6.35;;;23.90;40.10;;;;;;4964385;28;114401;-81
2023/06/18 09:32:12;;;;;;;7.95;5.75;;;24.10;40.00;;;;;;4971055;28;115261;-80
2023/06/18 09:34:40;;;;;;;6.07;5.38;;;24.20;39.00;;;;;;4973203;28;114983;-80
2023/06/18 09:37:12;;;;;;;6.68;5.35;;;24.20;39.00;;;;;;4962682;28;115808;-80
2023/06/18 09:39:40;;;;;;;12.85;5.72;;;24.30;38.10;;;;;;4978952;28;116594;-81
2023/06/18 09:42:09;;;;;;;7.45;6.10;;;24.40;38.50;;;;;;4979558;28;114486;-81
2023/06/18 09:44:36;;;;;;;6.68;5.43;;;24.60;38.50;;;;;;4981632;28;115427;-81
2023/06/18 09:47:12;;;;;;;10.50;7.43;;;24.80;38.10;;;;;;4983381;28;114853;-81
2023/06/18 09:49:49;;;;;;;8.98;7.93;;;24.90;37.90;;;;;;4983179;28;114416;-80
2023/06/18 09:52:24;;;;;;;8.88;6.82;;;25.00;37.90;;;;;;4982787;28;114508;-81
2023/06/18 09:54:52;;;;;;;7.10;6.40;;;25.10;37.80;;;;;;4964695;28;116714;-80
2023/06/18 09:57:20;;;;;;;12.63;6.78;;;25.20;37.40;;;;;;4982166;28;114659;-81
2023/06/18 09:59:52;;;;;;;9.40;6.43;;;25.20;37.20;;;;;;4999580;28;114314;-82
2023/06/18 10:02:25;;;;;;;6.03;5.30;;;25.30;37.00;;;;;;4995532;28;114456;-82
2023/06/18 10:04:52;;;;;;;6.93;5.47;;;25.30;36.30;;;;;;4961298;28;116777;-82
2023/06/18 10:07:20;;;;;;;8.77;6.82;;;25.30;35.80;;;;;;4962842;28;114714;-82
2023/06/18 10:09:47;;;;;;;6.57;5.90;;;25.30;36.00;;;;;;4963110;28;114385;-81
2023/06/18 10:12:17;;;;;;;10.00;6.85;;;25.30;36.30;;;;;;4994296;28;114169;-81
2023/06/18 10:14:45;;;;;;;12.48;7.28;;;25.40;35.80;;;;;;4997654;28;115222;-80
2023/06/18 10:17:20;;;;;;;7.45;6.60;;;25.40;36.10;;;;;;4967852;28;115438;-80
2023/06/18 10:20:07;;;;;;;6.55;5.88;;;25.60;36.00;;;;;;4946700;28;114661;-80
2023/06/18 10:22:53;;;;;;;6.85;6.15;;;25.70;36.00;;;;;;4976050;28;114255;-82
2023/06/18 10:25:20;;;;;;;7.60;6.27;;;25.70;35.40;;;;;;4978327;28;115144;-82
2023/06/18 10:27:48;;;;;;;10.10;6.32;;;25.40;36.00;;;;;;4978209;28;115979;-81
2023/06/18 10:30:16;;;;;;;8.23;7.40;;;25.20;36.20;;;;;;4979212;28;114380;-82
2023/06/18 10:32:43;;;;;;;9.27;6.93;;;25.10;36.40;;;;;;4979193;28;114444;-81
2023/06/18 10:35:12;;;;;;;9.52;6.35;;;25.20;36.60;;;;;;4967741;28;116307;-80
2023/06/18 10:37:42;;;;;;;8.13;6.40;;;25.30;36.30;;;;;;4977499;28;115134;-81
2023/06/18 10:40:09;;;;;;;7.00;6.30;;;25.30;36.20;;;;;;4954372;28;114765;-80
2023/06/18 10:42:36;;;;;;;10.07;6.47;;;25.30;36.30;;;;;;4965030;28;114596;-82
2023/06/18 10:45:10;;;;;;;9.30;6.10;;;25.30;36.60;;;;;;4965314;28;114870;-82
2023/06/18 10:47:37;;;;;;;7.97;6.38;;;25.50;36.10;;;;;;4966073;28;115384;-80
2023/06/18 10:50:05;;;;;;;7.60;6.35;;;25.60;36.30;;;;;;4965671;28;114476;-80
2023/06/18 10:52:38;;;;;;;7.75;5.43;;;25.60;36.30;;;;;;4966617;28;114560;-81
2023/06/18 10:55:17;;;;;;;7.00;5.40;;;25.60;35.60;;;;;;4985318;28;115237;-81
2023/06/18 10:58:00;;;;;;;14.35;5.60;;;25.50;35.10;;;;;;4999790;28;114902;-80
2023/06/18 11:00:40;;;;;;;21.98;6.38;;;25.50;35.20;;;;;;4947464;28;114648;-82
2023/06/18 11:03:15;;;;;;;6.70;5.45;;;25.60;35.20;;;;;;4967420;28;114454;-83
2023/06/18 11:05:43;;;;;;;6.13;5.35;;;25.60;35.20;;;;;;4982906;28;115407;-82
2023/06/18 11:08:12;;;;;;;6.28;5.30;;;25.70;35.20;;;;;;4968221;28;114708;-82
2023/06/18 11:10:41;;;;;;;6.72;5.47;;;25.70;34.90;;;;;;4985397;28;114285;-82
2023/06/18 11:13:10;;;;;;;8.38;5.57;;;25.70;35.50;;;;;;4984855;28;114526;-82
2023/06/18 11:15:58;;;;;;;6.70;5.40;;;25.70;35.20;;;;;;4967839;28;115136;-82
2023/06/18 11:18:26;;;;;;;6.65;5.50;;;25.80;34.70;;;;;;4964011;28;116563;-83
2023/06/18 11:20:55;;;;;;;10.82;5.32;;;25.70;34.70;;;;;;4948324;28;114532;-81
2023/06/18 11:23:23;;;;;;;6.15;5.00;;;25.70;35.00;;;;;;4965388;28;114326;-81
2023/06/18 11:25:51;;;;;;;9.55;6.00;;;25.60;34.90;;;;;;4968418;28;115951;-82
2023/06/18 11:28:19;;;;;;;5.90;5.13;;;25.60;35.30;;;;;;4983268;28;114721;-82
2023/06/18 11:30:49;;;;;;;7.80;5.40;;;25.70;35.60;;;;;;4983419;28;114315;-82
2023/06/18 11:33:27;;;;;;;6.82;5.50;;;25.80;35.50;;;;;;4966242;28;114328;-82
2023/06/18 11:36:06;;;;;;;6.43;5.00;;;25.90;35.00;;;;;;4965428;28;115094;-82
2023/06/18 11:38:37;;;;;;;5.57;4.72;;;25.90;35.00;;;;;;4969754;28;118236;-81
2023/06/18 11:41:04;;;;;;;6.50;5.00;;;25.90;34.80;;;;;;4954380;28;114515;-82
2023/06/18 11:43:46;;;;;;;27.33;5.95;;;25.90;35.40;;;;;;4967835;28;115138;-82
2023/06/18 11:46:34;;;;;;;17.25;4.88;;;26.00;35.20;;;;;;4986793;28;115021;-82
2023/06/18 11:49:01;;;;;;;7.60;4.55;;;26.00;34.80;;;;;;4950420;28;114800;-82
2023/06/18 11:51:30;;;;;;;8.23;5.15;;;25.80;34.20;;;;;;4946902;28;114582;-81
2023/06/18 11:53:58;;;;;;;5.25;4.50;;;25.80;33.90;;;;;;4981572;28;114533;-81
2023/06/18 11:56:28;;;;;;;8.80;4.38;;;25.80;34.00;;;;;;4947947;28;118335;-82
2023/06/18 11:58:58;;;;;;;5.32;4.38;;;25.80;33.90;;;;;;4980525;28;116205;-82
2023/06/18 12:01:28;;;;;;;4.45;3.95;;;25.80;33.50;;;;;;4980030;28;114434;-82
2023/06/18 12:04:05;;;;;;;6.25;4.45;;;25.80;33.40;;;;;;4964794;28;114374;-82
2023/06/18 12:06:37;;;;;;;6.82;5.10;;;25.80;33.70;;;;;;4963503;28;117148;-82
2023/06/18 12:09:11;;;;;;;5.43;4.40;;;25.80;33.90;;;;;;4947064;28;115256;-82
2023/06/18 12:11:57;;;;;;;7.18;4.68;;;25.80;34.30;;;;;;4964415;28;114471;-83
2023/06/18 12:14:34;;;;;;;5.70;4.15;;;25.90;34.50;;;;;;4964238;28;114595;-81
2023/06/18 12:17:41;;;;;;;6.72;4.95;;;25.90;34.00;;;;;;4963891;28;115542;-82
2023/06/18 12:20:12;;;;;;;9.93;4.77;;;26.00;34.30;;;;;;4946913;28;114699;-82
2023/06/18 12:22:40;;;;;;;5.85;5.05;;;26.00;34.00;;;;;;4982766;28;114217;-80
2023/06/18 12:25:07;;;;;;;6.03;4.50;;;26.00;34.10;;;;;;4964631;28;117038;-80
2023/06/18 12:27:35;;;;;;;6.15;4.60;;;26.10;34.00;;;;;;4963058;28;114837;-81
2023/06/18 12:30:07;;;;;;;6.85;5.25;;;26.10;34.00;;;;;;4978813;28;119058;-80
2023/06/18 12:32:36;;;;;;;7.20;5.10;;;26.20;33.70;;;;;;4964799;28;114449;-82
2023/06/18 12:35:13;;;;;;;7.45;5.47;;;26.20;33.70;;;;;;4964053;28;116072;-81
2023/06/18 12:37:41;;;;;;;7.05;4.72;;;26.20;33.50;;;;;;4978408;28;115447;-81
2023/06/18 12:40:10;;;;;;;12.73;5.50;;;26.00;33.80;;;;;;4962158;28;115078;-82
2023/06/18 12:42:37;;;;;;;7.00;5.57;;;25.90;34.20;;;;;;4964443;28;114639;-81
2023/06/18 12:45:06;;;;;;;6.97;5.95;;;25.80;34.10;;;;;;4979834;28;114289;-82
2023/06/18 12:47:39;;;;;;;6.53;5.22;;;25.80;34.30;;;;;;4978341;28;115380;-82